Big Pine Key, Florida
Current Conditions -  °F | °C
As of 7:53 AM on Friday 19 Dec 2014 (Local Time) from KMTH Reporting Station
Clear Clear  
Wind Chill: 65°   Ceiling: Unl
Heat Index: 65°   Visibility: 10mi
Dew Point: 59°   Wind: 12mph
Humidity: 81%   Direction: 40°NE
Pressure: 30.08"   Gusts: NA
Location:  24.67°N, 81.35°W
Report Text: KMTH 191253Z AUTO 04010KT 10SM CLR 18/15 A3008 RMK AO2 SLP187 T01830150
Loading
Personal Weather Stations






























Interactive Weather Map New forecast layout! Learn more

10-Day Weather Forecast

Advertisements
Track Severe Weather on mobile